Time;durP1;ratioP1;P1;durP2;ratioP2;P2;SDS_P1;SDS_P2;PMS_P1;PMS_P2;Temp;Humidity;BMP_temperature;BMP_pressure;BME280_temperature;BME280_humidity;BME280_pressure;Samples;Min_cycle;Max_cycle;Signal;HPM_P1;HPM_P2
2023/09/19 00:02:09;;;;;;;4.47;1.25;;;15.70;99.90;;;;;;7572285;19;21970;-71
2023/09/19 00:04:42;;;;;;;3.33;1.60;;;15.70;99.90;;;;;;7590332;19;20641;-74
2023/09/19 00:07:16;;;;;;;2.40;1.30;;;15.80;99.90;;;;;;7578845;19;20014;-72
2023/09/19 00:09:48;;;;;;;3.10;1.25;;;15.90;99.90;;;;;;7561371;19;20326;-73
2023/09/19 00:12:20;;;;;;;3.20;1.40;;;15.80;99.90;;;;;;7579127;19;20022;-73
2023/09/19 00:14:53;;;;;;;2.73;1.47;;;15.80;99.90;;;;;;7589715;19;20030;-72
2023/09/19 00:17:25;;;;;;;2.47;1.60;;;15.80;99.90;;;;;;7589048;19;20290;-72
2023/09/19 00:19:58;;;;;;;4.95;1.48;;;15.80;99.90;;;;;;7568726;19;20019;-72
2023/09/19 00:22:30;;;;;;;3.10;1.40;;;15.80;99.90;;;;;;7555378;19;20743;-70
2023/09/19 00:25:02;;;;;;;4.15;1.52;;;15.80;99.90;;;;;;7586764;19;20025;-73
2023/09/19 00:27:35;;;;;;;3.28;1.65;;;15.80;99.90;;;;;;7584405;19;20048;-73
2023/09/19 00:30:14;;;;;;;3.63;1.40;;;15.80;99.90;;;;;;7578074;19;20019;-73
2023/09/19 00:32:48;;;;;;;5.95;1.65;;;15.80;99.90;;;;;;7175191;19;22270;-70
2023/09/19 00:35:23;;;;;;;2.65;1.17;;;15.80;99.90;;;;;;7112983;19;20019;-72
2023/09/19 00:37:56;;;;;;;3.40;1.33;;;15.80;99.90;;;;;;7145964;19;20698;-72
2023/09/19 00:40:30;;;;;;;3.63;1.52;;;15.90;99.90;;;;;;7145288;19;20611;-70
2023/09/19 00:43:03;;;;;;;7.45;1.90;;;15.90;99.90;;;;;;7154022;19;21047;-70
2023/09/19 00:45:38;;;;;;;2.25;1.35;;;15.80;99.90;;;;;;7153818;19;21067;-70
2023/09/19 00:48:11;;;;;;;3.15;1.30;;;15.90;99.90;;;;;;7146287;19;20095;-73
2023/09/19 00:50:47;;;;;;;5.43;1.90;;;15.90;99.90;;;;;;7144570;19;20469;-71
2023/09/19 00:53:23;;;;;;;4.65;1.52;;;15.90;99.90;;;;;;7134150;19;20058;-71
2023/09/19 00:55:56;;;;;;;3.85;1.80;;;15.90;99.90;;;;;;7126753;19;20640;-72
2023/09/19 00:58:33;;;;;;;5.53;1.57;;;15.90;99.90;;;;;;7149447;19;21349;-70
2023/09/19 01:01:07;;;;;;;2.75;1.42;;;15.90;99.90;;;;;;7154269;19;20799;-72
2023/09/19 01:03:41;;;;;;;4.13;1.67;;;15.90;99.90;;;;;;7143094;19;20980;-71
2023/09/19 01:06:15;;;;;;;2.28;1.60;;;15.90;99.90;;;;;;7138044;19;20450;-73
2023/09/19 01:08:47;;;;;;;4.18;1.92;;;15.90;99.90;;;;;;7141673;19;21013;-70
2023/09/19 01:11:26;;;;;;;4.50;1.70;;;15.90;99.90;;;;;;7124248;19;20288;-69
2023/09/19 01:14:11;;;;;;;4.20;1.40;;;15.90;99.90;;;;;;7146750;19;20010;-71
2023/09/19 01:17:18;;;;;;;3.78;1.35;;;15.90;99.90;;;;;;7144371;19;20565;-69
2023/09/19 01:20:04;;;;;;;1.60;1.40;;;15.90;99.90;;;;;;7141824;19;20929;-72
2023/09/19 01:23:02;;;;;;;4.93;1.70;;;15.90;99.90;;;;;;7136930;19;20911;-70
2023/09/19 01:26:23;;;;;;;3.58;1.27;;;15.90;99.90;;;;;;7147567;19;20262;-70
2023/09/19 01:29:39;;;;;;;2.45;1.30;;;15.90;99.90;;;;;;7120169;19;21208;-70
2023/09/19 01:32:16;;;;;;;5.95;1.60;;;15.90;99.90;;;;;;7155924;19;20018;-72
2023/09/19 01:34:57;;;;;;;4.88;1.42;;;15.90;99.90;;;;;;7167218;19;21372;-70
2023/09/19 01:37:31;;;;;;;3.25;1.50;;;15.90;99.90;;;;;;7166532;19;20359;-71
2023/09/19 01:40:19;;;;;;;1.90;1.40;;;15.90;99.90;;;;;;7158295;19;21397;-72
2023/09/19 01:43:05;;;;;;;2.08;1.27;;;16.00;99.90;;;;;;7144373;19;21507;-72
2023/09/19 01:45:56;;;;;;;2.55;1.50;;;16.00;99.90;;;;;;7146863;19;20692;-70
2023/09/19 01:48:52;;;;;;;4.18;1.50;;;16.00;99.90;;;;;;7147316;19;20925;-72
2023/09/19 01:51:48;;;;;;;3.30;1.45;;;16.10;99.90;;;;;;7144138;19;20022;-72
2023/09/19 01:54:30;;;;;;;3.17;1.50;;;16.00;99.90;;;;;;7145178;19;20018;-72
2023/09/19 01:57:14;;;;;;;4.43;1.73;;;16.00;99.90;;;;;;7149761;19;20150;-73
2023/09/19 01:59:56;;;;;;;3.72;1.20;;;16.10;99.90;;;;;;7144265;19;20832;-72
2023/09/19 02:02:30;;;;;;;1.90;1.10;;;16.10;99.90;;;;;;7156055;19;20029;-74
2023/09/19 02:05:04;;;;;;;2.63;1.38;;;16.10;99.90;;;;;;7151304;19;20998;-72
2023/09/19 02:07:38;;;;;;;3.13;1.38;;;16.20;99.90;;;;;;7124802;19;21530;-70
2023/09/19 02:10:11;;;;;;;2.20;1.27;;;16.20;99.90;;;;;;7129443;19;20743;-70
2023/09/19 02:12:45;;;;;;;2.20;1.40;;;16.30;99.90;;;;;;7140520;19;21374;-71
2023/09/19 02:15:18;;;;;;;4.18;1.67;;;16.20;99.90;;;;;;7126249;19;20137;-71
2023/09/19 02:17:51;;;;;;;3.15;1.30;;;16.20;99.90;;;;;;7126742;19;20015;-70
2023/09/19 02:20:24;;;;;;;2.45;1.55;;;16.30;99.90;;;;;;7138485;19;20071;-70
2023/09/19 02:22:57;;;;;;;3.85;1.40;;;16.30;99.90;;;;;;7132495;19;20969;-71
2023/09/19 02:25:30;;;;;;;3.58;1.63;;;16.40;99.90;;;;;;7127413;19;20545;-72
2023/09/19 02:28:03;;;;;;;5.57;1.48;;;16.30;99.90;;;;;;7139300;19;20018;-71
2023/09/19 02:30:36;;;;;;;2.53;1.05;;;16.40;99.90;;;;;;7490599;19;20018;-72
2023/09/19 02:33:09;;;;;;;3.53;1.45;;;16.40;99.90;;;;;;7575014;19;20021;-73
2023/09/19 02:35:42;;;;;;;5.63;1.40;;;16.40;99.90;;;;;;7581793;19;20124;-72
2023/09/19 02:38:18;;;;;;;;;;;16.40;99.90;;;;;;7577221;19;20053;-72
2023/09/19 02:40:51;;;;;;;2.33;1.40;;;16.30;99.90;;;;;;7581695;19;20918;-73
2023/09/19 02:43:23;;;;;;;2.72;1.45;;;16.30;99.90;;;;;;7583015;19;20018;-72
2023/09/19 02:45:57;;;;;;;5.20;1.80;;;16.20;99.90;;;;;;7586717;19;20074;-73
2023/09/19 02:48:29;;;;;;;4.45;1.70;;;16.30;99.90;;;;;;7570077;19;20022;-73
2023/09/19 02:51:05;;;;;;;2.88;1.40;;;16.20;99.90;;;;;;7113390;19;21739;-73
2023/09/19 02:53:38;;;;;;;2.88;1.42;;;16.20;99.90;;;;;;6921109;19;20045;-71
2023/09/19 02:56:13;;;;;;;4.28;1.55;;;16.20;99.90;;;;;;6912482;19;20531;-70
2023/09/19 02:58:48;;;;;;;3.83;1.63;;;16.30;99.90;;;;;;6905582;19;22220;-71
2023/09/19 03:01:21;;;;;;;3.15;1.85;;;16.30;99.90;;;;;;6871746;19;21726;-71
2023/09/19 03:03:54;;;;;;;3.15;1.70;;;16.30;99.90;;;;;;6912052;19;20022;-70
2023/09/19 03:06:30;;;;;;;6.65;2.97;;;16.30;99.90;;;;;;6876815;19;21224;-71
2023/09/19 03:09:05;;;;;;;4.45;1.80;;;16.20;99.90;;;;;;6894772;19;20049;-72
2023/09/19 03:11:40;;;;;;;4.82;1.80;;;16.20;99.90;;;;;;6894436;19;21431;-70
2023/09/19 03:14:13;;;;;;;3.88;1.88;;;16.20;99.90;;;;;;6899734;19;20026;-71
2023/09/19 03:16:48;;;;;;;2.47;1.80;;;16.30;99.90;;;;;;6892482;19;20018;-72
2023/09/19 03:19:21;;;;;;;6.53;1.77;;;16.20;99.90;;;;;;6893080;19;20635;-71
2023/09/19 03:21:57;;;;;;;5.03;1.45;;;16.30;99.90;;;;;;6895833;19;20018;-71
2023/09/19 03:24:31;;;;;;;2.95;1.67;;;16.30;99.90;;;;;;6894413;19;20881;-71
2023/09/19 03:27:05;;;;;;;4.07;1.67;;;16.30;99.90;;;;;;6876077;19;20418;-71
2023/09/19 03:29:38;;;;;;;4.35;1.95;;;16.20;99.90;;;;;;6887700;19;20023;-71
2023/09/19 03:32:12;;;;;;;2.97;1.50;;;16.20;99.90;;;;;;6913056;19;20782;-71
2023/09/19 03:34:48;;;;;;;2.08;1.30;;;16.20;99.90;;;;;;6898188;19;21293;-71
2023/09/19 03:37:22;;;;;;;2.65;1.73;;;16.20;99.90;;;;;;6901546;19;20641;-71
2023/09/19 03:39:55;;;;;;;3.60;1.85;;;16.20;99.90;;;;;;6895479;19;20082;-71
2023/09/19 03:42:28;;;;;;;2.50;1.67;;;16.20;99.90;;;;;;6893667;19;20069;-71
2023/09/19 03:45:05;;;;;;;4.47;1.47;;;16.20;99.90;;;;;;6893998;19;20275;-71
2023/09/19 03:47:40;;;;;;;4.03;1.63;;;16.10;99.90;;;;;;6891813;19;20291;-71
2023/09/19 03:50:17;;;;;;;3.08;1.52;;;16.20;99.90;;;;;;6907934;19;21178;-71
2023/09/19 03:52:56;;;;;;;3.97;2.47;;;16.20;99.90;;;;;;6892609;19;21433;-70
2023/09/19 03:55:30;;;;;;;3.63;2.20;;;16.20;99.90;;;;;;6887371;19;20741;-70
2023/09/19 03:58:06;;;;;;;2.67;1.70;;;16.10;99.90;;;;;;6892006;19;20018;-71
2023/09/19 04:00:39;;;;;;;6.00;1.52;;;16.00;99.90;;;;;;6908799;19;20021;-70
2023/09/19 04:03:19;;;;;;;5.20;1.98;;;16.10;99.90;;;;;;6893102;19;20014;-73
2023/09/19 04:05:52;;;;;;;3.38;1.83;;;16.10;99.90;;;;;;6869863;19;21569;-71
2023/09/19 04:08:24;;;;;;;2.50;1.75;;;16.10;99.90;;;;;;6841939;19;21881;-70
2023/09/19 04:10:56;;;;;;;4.80;1.90;;;16.10;99.90;;;;;;6837270;19;20053;-71
2023/09/19 04:13:29;;;;;;;2.42;1.77;;;16.20;99.90;;;;;;6836659;19;21379;-71
2023/09/19 04:16:06;;;;;;;5.63;1.70;;;16.20;99.90;;;;;;6829138;19;20259;-71
2023/09/19 04:18:39;;;;;;;4.07;1.70;;;16.20;99.90;;;;;;6838676;19;21009;-71
2023/09/19 04:21:13;;;;;;;3.30;1.70;;;16.20;99.90;;;;;;6831718;19;21580;-72
2023/09/19 04:23:46;;;;;;;4.30;1.70;;;16.20;99.90;;;;;;6820001;19;21308;-72
2023/09/19 04:26:19;;;;;;;2.55;1.60;;;16.30;99.90;;;;;;6831372;19;21217;-71
2023/09/19 04:28:52;;;;;;;3.05;1.48;;;16.20;99.90;;;;;;6834765;19;20720;-71
2023/09/19 04:31:25;;;;;;;2.72;1.77;;;16.20;99.90;;;;;;7324509;19;20394;-72
2023/09/19 04:33:59;;;;;;;2.80;2.10;;;16.20;99.90;;;;;;7586079;19;20106;-71
2023/09/19 04:36:31;;;;;;;4.13;1.90;;;16.20;99.90;;;;;;7579313;19;20684;-71
2023/09/19 04:39:07;;;;;;;4.28;1.83;;;16.30;99.90;;;;;;7586192;19;20015;-71
2023/09/19 04:41:41;;;;;;;3.97;2.30;;;16.30;99.90;;;;;;7583253;19;20649;-74
2023/09/19 04:44:13;;;;;;;5.40;1.88;;;16.20;99.90;;;;;;7579961;19;20018;-71
2023/09/19 04:46:48;;;;;;;4.75;1.67;;;16.20;99.90;;;;;;7584704;19;20015;-72
2023/09/19 04:49:21;;;;;;;4.10;1.88;;;16.10;99.90;;;;;;7588572;19;20868;-72
2023/09/19 04:51:53;;;;;;;4.97;2.05;;;16.10;99.90;;;;;;7069437;19;21228;-70
2023/09/19 04:54:27;;;;;;;3.20;1.50;;;16.10;99.90;;;;;;6843827;19;21273;-70
2023/09/19 04:57:00;;;;;;;3.70;2.00;;;16.10;99.90;;;;;;6840402;19;22041;-73
2023/09/19 04:59:32;;;;;;;;;;;16.10;99.90;;;;;;6902957;19;20010;-70
2023/09/19 05:02:05;;;;;;;5.22;1.50;;;16.10;99.90;;;;;;6882217;19;20978;-72
2023/09/19 05:04:38;;;;;;;6.85;1.85;;;16.10;99.90;;;;;;6911868;19;21211;-71
2023/09/19 05:07:11;;;;;;;3.50;1.77;;;16.10;99.90;;;;;;6895500;19;21276;-73
2023/09/19 05:09:43;;;;;;;7.22;1.75;;;16.10;99.90;;;;;;6886336;19;20151;-72
2023/09/19 05:12:18;;;;;;;3.30;2.25;;;16.10;99.90;;;;;;6975588;19;22291;-74
2023/09/19 05:14:50;;;;;;;3.45;1.63;;;16.10;99.90;;;;;;7011965;19;21718;-72
2023/09/19 05:17:24;;;;;;;3.40;1.50;;;16.10;99.90;;;;;;7014471;19;21419;-71
2023/09/19 05:20:11;;;;;;;3.78;1.85;;;16.10;99.90;;;;;;7014924;19;20014;-71
2023/09/19 05:22:46;;;;;;;3.30;1.80;;;16.10;99.90;;;;;;6987690;19;20750;-71
2023/09/19 05:25:20;;;;;;;3.17;1.35;;;16.10;99.90;;;;;;6974380;19;20036;-71
2023/09/19 05:27:53;;;;;;;10.73;1.58;;;16.10;99.90;;;;;;7011627;19;20014;-72
2023/09/19 05:30:29;;;;;;;2.30;1.50;;;16.10;99.90;;;;;;6993678;19;20052;-72
2023/09/19 05:33:04;;;;;;;4.10;1.40;;;16.20;99.90;;;;;;6971682;19;20014;-73
2023/09/19 05:35:41;;;;;;;1.55;1.20;;;16.20;99.90;;;;;;6959174;19;20064;-73
2023/09/19 05:38:18;;;;;;;3.55;1.40;;;16.30;99.90;;;;;;6939049;19;20956;-71
2023/09/19 05:40:51;;;;;;;3.47;1.40;;;16.30;99.90;;;;;;6938920;19;20021;-72
2023/09/19 05:43:24;;;;;;;2.28;1.30;;;16.30;99.90;;;;;;6962038;19;20106;-73
2023/09/19 05:45:56;;;;;;;2.45;1.25;;;16.30;99.90;;;;;;6948170;19;21049;-71
2023/09/19 05:48:29;;;;;;;4.43;1.10;;;16.30;99.90;;;;;;6944533;19;20022;-72
2023/09/19 05:51:02;;;;;;;3.10;1.30;;;16.30;99.90;;;;;;6944646;19;20890;-73
2023/09/19 05:53:34;;;;;;;3.15;1.55;;;16.30;99.90;;;;;;6906953;19;21551;-73
2023/09/19 05:56:07;;;;;;;4.23;1.63;;;16.40;99.90;;;;;;6939028;19;21196;-70
2023/09/19 05:58:40;;;;;;;2.53;1.50;;;16.30;99.90;;;;;;6935157;19;21479;-73
2023/09/19 06:01:13;;;;;;;3.53;1.30;;;16.30;99.90;;;;;;6940765;19;20039;-73
2023/09/19 06:03:45;;;;;;;4.27;1.03;;;16.20;99.90;;;;;;6952075;19;20967;-73
2023/09/19 06:06:18;;;;;;;1.75;1.23;;;16.20;99.90;;;;;;6938002;19;21215;-72
2023/09/19 06:08:52;;;;;;;6.47;1.45;;;16.30;99.90;;;;;;6932839;19;20793;-71
2023/09/19 06:11:26;;;;;;;2.85;1.30;;;16.40;99.90;;;;;;6926757;19;21137;-73
2023/09/19 06:14:00;;;;;;;3.38;1.60;;;16.60;99.90;;;;;;6909637;19;20887;-73
2023/09/19 06:16:32;;;;;;;1.45;1.20;;;16.70;99.90;;;;;;6902736;19;20912;-71
2023/09/19 06:19:08;;;;;;;3.27;1.50;;;16.80;99.90;;;;;;6919500;19;20496;-71
2023/09/19 06:21:41;;;;;;;4.47;1.35;;;16.90;99.90;;;;;;6922322;19;21257;-71
2023/09/19 06:24:14;;;;;;;1.58;1.25;;;16.90;99.90;;;;;;6899262;19;20858;-71
2023/09/19 06:26:47;;;;;;;1.63;1.27;;;17.00;99.90;;;;;;7543222;19;20085;-71
2023/09/19 06:29:20;;;;;;;1.83;1.23;;;17.10;99.90;;;;;;7595847;19;20013;-74
2023/09/19 06:31:52;;;;;;;5.00;1.60;;;17.20;99.90;;;;;;7593062;19;20053;-71
2023/09/19 06:34:25;;;;;;;7.13;1.23;;;17.20;99.90;;;;;;7595236;19;20019;-74
2023/09/19 06:36:58;;;;;;;2.45;1.02;;;17.20;99.90;;;;;;7597094;19;20029;-74
2023/09/19 06:39:31;;;;;;;1.70;1.10;;;17.20;99.90;;;;;;7597151;19;20022;-72
2023/09/19 06:42:04;;;;;;;5.20;1.55;;;17.30;99.90;;;;;;7599260;19;20060;-71
2023/09/19 06:44:36;;;;;;;6.00;1.40;;;17.50;99.90;;;;;;7596063;19;20026;-71
2023/09/19 06:47:10;;;;;;;2.58;1.35;;;17.60;99.90;;;;;;7597735;19;20027;-74
2023/09/19 06:49:43;;;;;;;4.00;1.25;;;17.70;99.90;;;;;;7599645;19;21001;-71
2023/09/19 06:52:17;;;;;;;2.55;1.45;;;17.70;99.90;;;;;;7599099;19;20019;-71
2023/09/19 06:54:50;;;;;;;2.33;1.13;;;17.80;99.90;;;;;;7592655;19;20961;-71
2023/09/19 06:57:22;;;;;;;2.70;1.20;;;18.00;99.90;;;;;;7599356;19;20057;-71
2023/09/19 06:59:54;;;;;;;1.50;0.90;;;18.10;99.90;;;;;;7599582;19;20022;-72
2023/09/19 07:02:27;;;;;;;2.03;1.30;;;18.10;99.90;;;;;;7595080;19;20023;-74
2023/09/19 07:05:00;;;;;;;3.80;1.30;;;18.00;99.90;;;;;;7595664;19;20303;-72
2023/09/19 07:07:34;;;;;;;2.20;1.10;;;17.90;99.90;;;;;;7596873;19;20606;-71
2023/09/19 07:10:10;;;;;;;2.15;1.17;;;17.90;99.90;;;;;;7597386;19;20025;-71
2023/09/19 07:12:43;;;;;;;1.85;1.38;;;18.00;99.90;;;;;;7598837;19;21107;-72
2023/09/19 07:15:15;;;;;;;2.17;1.13;;;18.00;99.90;;;;;;7596546;19;20026;-72
2023/09/19 07:17:48;;;;;;;2.50;1.50;;;18.20;99.90;;;;;;7594326;19;20025;-71
2023/09/19 07:20:21;;;;;;;3.38;1.10;;;18.30;99.90;;;;;;7599448;19;20026;-73
2023/09/19 07:22:54;;;;;;;2.17;1.00;;;18.30;99.90;;;;;;7595011;19;20022;-71
2023/09/19 07:25:29;;;;;;;3.33;1.42;;;18.20;99.90;;;;;;7592778;19;20643;-73
2023/09/19 07:28:02;;;;;;;2.80;1.05;;;18.20;99.90;;;;;;7598652;19;21077;-74
2023/09/19 07:30:41;;;;;;;2.20;1.30;;;18.20;99.90;;;;;;7597315;19;20081;-73
2023/09/19 07:33:13;;;;;;;2.00;1.23;;;18.10;99.90;;;;;;7595488;19;20019;-74
2023/09/19 07:35:47;;;;;;;3.83;1.25;;;18.10;99.90;;;;;;7594613;19;20025;-72
2023/09/19 07:38:21;;;;;;;3.63;1.35;;;18.00;99.90;;;;;;7598785;19;20019;-72
2023/09/19 07:40:59;;;;;;;3.83;1.35;;;18.10;99.90;;;;;;7596645;19;20018;-73
2023/09/19 07:43:33;;;;;;;2.58;1.55;;;18.10;99.90;;;;;;7595326;19;20025;-72
2023/09/19 07:46:07;;;;;;;1.58;1.10;;;18.10;99.90;;;;;;7597290;19;20015;-72
2023/09/19 07:48:40;;;;;;;5.05;1.38;;;18.20;99.90;;;;;;7595616;19;20579;-72
2023/09/19 07:51:15;;;;;;;;;;;18.20;99.90;;;;;;7598901;19;20618;-73
2023/09/19 07:53:48;;;;;;;3.70;1.10;;;18.30;99.90;;;;;;7596921;19;19919;-72
2023/09/19 07:56:22;;;;;;;2.72;1.52;;;18.30;99.90;;;;;;7605716;19;20054;-73
2023/09/19 07:58:57;;;;;;;2.75;1.30;;;18.50;99.90;;;;;;7600941;19;20019;-72
2023/09/19 08:01:30;;;;;;;3.55;1.40;;;18.50;99.90;;;;;;7602910;19;20022;-72
2023/09/19 08:04:02;;;;;;;3.90;1.10;;;18.60;99.90;;;;;;7600554;19;20109;-72
2023/09/19 08:06:35;;;;;;;3.00;1.17;;;18.70;99.90;;;;;;7604059;19;20018;-72
2023/09/19 08:09:11;;;;;;;3.88;1.60;;;18.70;99.90;;;;;;7600979;19;20046;-73
2023/09/19 08:11:43;;;;;;;4.55;1.17;;;18.70;99.90;;;;;;7605147;19;21024;-73
2023/09/19 08:14:16;;;;;;;2.97;1.35;;;18.70;99.90;;;;;;7603040;19;20026;-72
2023/09/19 08:16:48;;;;;;;5.03;1.27;;;18.70;99.90;;;;;;7604170;19;20105;-72
2023/09/19 08:19:23;;;;;;;2.70;1.40;;;18.90;99.90;;;;;;7605321;19;20017;-72
2023/09/19 08:21:59;;;;;;;5.30;1.30;;;19.00;99.90;;;;;;7605822;19;20010;-72
2023/09/19 08:24:34;;;;;;;1.83;1.10;;;19.10;99.90;;;;;;7599856;19;20105;-72
2023/09/19 08:27:09;;;;;;;2.30;1.30;;;19.20;99.90;;;;;;7604875;19;20018;-72
2023/09/19 08:29:42;;;;;;;1.77;0.95;;;19.20;99.90;;;;;;7601866;19;20025;-73
2023/09/19 08:32:15;;;;;;;3.75;1.20;;;19.20;99.90;;;;;;7603735;19;20081;-72
2023/09/19 08:34:47;;;;;;;3.75;1.42;;;19.20;99.90;;;;;;7597179;19;20022;-72
2023/09/19 08:37:20;;;;;;;4.05;1.10;;;19.10;99.90;;;;;;7604721;19;20025;-73
2023/09/19 08:39:52;;;;;;;3.40;1.40;;;19.20;99.90;;;;;;7602482;19;20358;-72
2023/09/19 08:42:25;;;;;;;1.75;1.08;;;19.20;99.90;;;;;;7602721;19;20500;-71
2023/09/19 08:45:00;;;;;;;2.17;1.00;;;19.30;99.90;;;;;;7599597;19;20023;-71
2023/09/19 08:47:45;;;;;;;1.60;1.10;;;19.50;99.90;;;;;;7599219;19;20039;-71
2023/09/19 08:50:29;;;;;;;4.70;1.30;;;19.60;99.90;;;;;;7601699;19;20014;-72
2023/09/19 08:53:05;;;;;;;2.55;1.17;;;19.50;99.90;;;;;;7597237;19;20010;-71
2023/09/19 08:55:41;;;;;;;2.60;1.20;;;19.60;99.90;;;;;;7595061;19;20056;-71
2023/09/19 08:58:19;;;;;;;1.98;0.90;;;19.70;99.90;;;;;;7602571;19;20046;-71
2023/09/19 09:00:55;;;;;;;2.08;1.00;;;19.60;99.90;;;;;;7601693;19;20086;-72
2023/09/19 09:03:33;;;;;;;2.35;1.02;;;19.60;99.90;;;;;;7600475;19;20029;-72
2023/09/19 09:06:10;;;;;;;3.60;1.30;;;19.60;99.90;;;;;;7603287;19;20118;-72
2023/09/19 09:08:44;;;;;;;2.35;1.10;;;19.70;99.90;;;;;;7599825;19;20015;-71
2023/09/19 09:11:17;;;;;;;3.47;1.10;;;19.80;99.90;;;;;;7605562;19;20014;-72
2023/09/19 09:13:50;;;;;;;1.45;0.98;;;19.80;99.90;;;;;;7599532;19;20018;-71
2023/09/19 09:16:26;;;;;;;2.53;1.17;;;20.00;99.90;;;;;;7605913;19;20021;-72
2023/09/19 09:18:58;;;;;;;3.58;1.20;;;20.20;99.90;;;;;;7605109;19;20018;-71
2023/09/19 09:21:38;;;;;;;1.98;1.02;;;20.30;99.90;;;;;;7601907;19;21118;-72
2023/09/19 09:24:30;;;;;;;2.40;1.17;;;20.40;99.90;;;;;;7602726;19;20021;-71
2023/09/19 09:27:05;;;;;;;4.63;1.20;;;20.50;99.90;;;;;;7600206;19;20018;-71
2023/09/19 09:29:54;;;;;;;1.65;0.80;;;20.60;99.90;;;;;;7595121;19;20065;-71
2023/09/19 09:32:29;;;;;;;2.55;1.30;;;20.40;99.90;;;;;;7604213;19;20042;-72
2023/09/19 09:35:09;;;;;;;2.20;1.10;;;20.20;99.90;;;;;;7599353;19;20018;-72
2023/09/19 09:37:43;;;;;;;2.60;1.30;;;20.10;99.90;;;;;;7601325;19;20052;-71
2023/09/19 09:42:52;;;;;;;3.13;1.02;;;20.10;99.90;;;;;;7597705;19;20010;-70
2023/09/19 09:48:18;;;;;;;1.98;1.40;;;20.40;99.90;;;;;;7597354;19;20029;-71
2023/09/19 09:53:33;;;;;;;2.95;1.10;;;20.60;99.90;;;;;;7598236;19;20022;-72
2023/09/19 09:56:07;;;;;;;1.80;1.30;;;20.40;99.90;;;;;;7599005;19;20015;-71
2023/09/19 09:58:55;;;;;;;4.30;1.55;;;20.60;99.90;;;;;;7599809;19;20046;-71
2023/09/19 10:01:46;;;;;;;4.65;1.30;;;20.80;99.90;;;;;;7602624;19;20614;-72
2023/09/19 10:04:36;;;;;;;2.15;1.08;;;21.00;99.90;;;;;;7600994;19;20023;-72
2023/09/19 10:07:11;;;;;;;2.40;1.10;;;21.00;99.90;;;;;;7561925;19;20057;-71
2023/09/19 10:09:50;;;;;;;4.63;1.52;;;21.00;99.90;;;;;;6901063;19;20046;-70
2023/09/19 10:12:27;;;;;;;4.35;1.30;;;21.00;99.90;;;;;;6870133;19;20420;-71
2023/09/19 10:15:02;;;;;;;1.67;1.15;;;21.10;99.90;;;;;;6906005;19;20049;-70
2023/09/19 10:17:37;;;;;;;2.30;1.35;;;21.20;99.90;;;;;;6923394;19;20728;-70
2023/09/19 10:20:33;;;;;;;2.22;1.40;;;21.30;99.90;;;;;;6931267;19;21318;-71
2023/09/19 10:23:13;;;;;;;3.60;1.30;;;21.50;99.90;;;;;;7598270;19;20011;-72
2023/09/19 10:25:47;;;;;;;3.22;1.67;;;21.70;99.90;;;;;;7594670;19;20082;-73
2023/09/19 10:28:24;;;;;;;3.90;1.55;;;21.60;99.90;;;;;;7601515;19;20022;-72
2023/09/19 10:30:57;;;;;;;3.33;1.13;;;21.60;99.90;;;;;;7595146;19;20018;-73
2023/09/19 10:33:35;;;;;;;4.32;1.50;;;21.40;99.90;;;;;;7598081;19;20634;-73
2023/09/19 10:36:12;;;;;;;2.55;1.15;;;21.50;99.90;;;;;;7594075;19;20022;-73
2023/09/19 10:38:47;;;;;;;3.17;1.20;;;21.40;99.90;;;;;;7599297;19;20028;-73
2023/09/19 10:41:21;;;;;;;2.42;1.45;;;21.40;99.90;;;;;;7600455;19;20061;-73
2023/09/19 10:43:59;;;;;;;2.20;1.30;;;21.50;99.90;;;;;;7598196;19;20100;-73
2023/09/19 10:46:33;;;;;;;3.13;1.40;;;21.50;99.90;;;;;;7600920;19;20483;-72
2023/09/19 10:49:11;;;;;;;4.65;1.27;;;21.60;99.90;;;;;;7602593;19;20603;-73
2023/09/19 10:51:50;;;;;;;1.63;1.10;;;21.70;99.90;;;;;;7600848;19;20074;-72
2023/09/19 10:54:26;;;;;;;3.67;1.40;;;21.80;99.90;;;;;;7600808;19;20022;-72
2023/09/19 10:57:00;;;;;;;1.70;1.25;;;21.90;99.90;;;;;;7597804;19;20114;-73
2023/09/19 10:59:34;;;;;;;3.05;1.13;;;22.10;99.90;;;;;;7601938;19;20043;-72
2023/09/19 11:02:17;;;;;;;3.35;1.30;;;22.40;99.90;;;;;;7596623;19;20664;-73
2023/09/19 11:04:50;;;;;;;4.88;1.52;;;22.50;99.90;;;;;;7598687;19;20061;-72
2023/09/19 11:07:25;;;;;;;2.08;1.45;;;22.50;99.90;;;;;;7603840;19;20022;-73
2023/09/19 11:10:03;;;;;;;3.42;1.45;;;22.60;99.90;;;;;;7601313;19;20010;-72
2023/09/19 11:12:41;;;;;;;2.13;1.45;;;22.60;99.90;;;;;;7591359;19;20025;-73
2023/09/19 11:15:51;;;;;;;3.17;1.20;;;22.50;99.90;;;;;;7597719;19;21453;-73
2023/09/19 11:18:43;;;;;;;3.22;0.98;;;22.20;98.70;;;;;;7600132;19;20024;-73
2023/09/19 11:21:33;;;;;;;2.30;1.02;;;22.10;99.40;;;;;;7597871;19;20057;-72
2023/09/19 11:24:22;;;;;;;6.03;1.10;;;22.00;99.80;;;;;;7596227;19;20468;-72
2023/09/19 11:27:16;;;;;;;2.47;1.30;;;22.30;99.30;;;;;;7598734;19;20019;-71
2023/09/19 11:30:12;;;;;;;;;;;23.10;98.90;;;;;;7610584;19;20014;-72
2023/09/19 11:33:21;;;;;;;4.35;1.13;;;23.60;97.10;;;;;;7604979;19;20365;-72
2023/09/19 11:36:15;;;;;;;5.25;0.80;;;23.90;95.60;;;;;;7600726;19;20062;-72
2023/09/19 11:38:49;;;;;;;1.30;1.10;;;24.40;94.20;;;;;;7605615;19;20079;-71
2023/09/19 11:41:21;;;;;;;2.20;1.00;;;24.80;91.60;;;;;;7600799;19;20937;-71
2023/09/19 11:44:04;;;;;;;1.92;1.00;;;25.20;92.10;;;;;;7604355;19;20007;-72
2023/09/19 11:46:51;;;;;;;4.15;1.10;;;25.40;90.00;;;;;;7609839;19;20082;-73
2023/09/19 11:49:31;;;;;;;2.28;0.82;;;25.60;88.70;;;;;;7608319;19;20017;-71
2023/09/19 11:52:05;;;;;;;2.30;0.85;;;25.20;88.10;;;;;;7606922;19;20011;-72
2023/09/19 11:54:41;;;;;;;2.78;0.95;;;25.10;88.70;;;;;;7604643;19;20029;-72
2023/09/19 11:57:20;;;;;;;3.42;1.10;;;25.00;88.80;;;;;;7590090;19;20018;-72
2023/09/19 11:59:54;;;;;;;0.98;0.73;;;25.30;89.10;;;;;;7598363;19;20025;-71
2023/09/19 12:02:40;;;;;;;3.03;1.10;;;26.00;89.20;;;;;;7602868;19;20033;-72
2023/09/19 12:05:13;;;;;;;2.92;1.10;;;26.20;86.10;;;;;;7599777;19;20014;-71
2023/09/19 12:07:47;;;;;;;1.48;1.05;;;26.10;85.60;;;;;;7595263;19;20384;-72
2023/09/19 12:10:23;;;;;;;1.40;0.90;;;26.40;85.00;;;;;;7593097;19;20026;-72
2023/09/19 12:12:59;;;;;;;2.03;0.80;;;26.50;85.10;;;;;;7584558;19;20041;-73
2023/09/19 12:15:38;;;;;;;3.28;1.20;;;26.90;84.70;;;;;;7601699;19;20161;-73
2023/09/19 12:18:27;;;;;;;1.50;1.08;;;26.80;84.30;;;;;;7603182;19;20006;-73
2023/09/19 12:21:02;;;;;;;1.60;0.90;;;26.70;82.00;;;;;;7566850;19;20496;-72
2023/09/19 12:23:37;;;;;;;;;;;26.30;80.80;;;;;;7453677;19;20018;-72
2023/09/19 12:26:12;;;;;;;3.60;0.93;;;26.30;80.50;;;;;;7589970;19;19945;-72
2023/09/19 12:28:45;;;;;;;5.28;1.10;;;25.70;81.20;;;;;;7591269;19;20020;-72
2023/09/19 12:31:19;;;;;;;4.35;0.90;;;25.20;83.30;;;;;;7584963;19;20015;-72
2023/09/19 12:33:55;;;;;;;2.55;1.05;;;25.10;81.80;;;;;;7576997;19;20017;-72
2023/09/19 12:36:32;;;;;;;2.92;1.20;;;24.80;82.20;;;;;;7350639;19;20557;-70
2023/09/19 12:39:08;;;;;;;1.40;1.00;;;25.60;84.00;;;;;;7252111;19;20025;-72
2023/09/19 12:41:42;;;;;;;2.28;1.00;;;25.60;81.40;;;;;;7294793;19;20015;-69
2023/09/19 12:44:15;;;;;;;3.03;1.33;;;25.80;81.30;;;;;;7134672;19;20620;-71
2023/09/19 12:46:49;;;;;;;4.40;1.10;;;26.30;80.20;;;;;;7059517;19;21099;-71
2023/09/19 12:49:22;;;;;;;2.58;1.23;;;27.00;81.00;;;;;;7003684;19;21027;-70
2023/09/19 12:51:58;;;;;;;1.85;0.98;;;27.40;77.40;;;;;;7247659;19;21786;-72
2023/09/19 12:54:51;;;;;;;1.95;1.10;;;27.70;77.20;;;;;;7099406;19;20015;-71
2023/09/19 12:57:27;;;;;;;2.47;1.10;;;28.40;76.10;;;;;;7005856;19;21433;-71
2023/09/19 13:00:11;;;;;;;1.85;1.02;;;28.40;75.20;;;;;;7030467;19;20829;-71
2023/09/19 13:03:15;;;;;;;1.30;1.20;;;28.40;73.40;;;;;;6979120;19;21243;-71
2023/09/19 13:05:52;;;;;;;1.58;1.00;;;28.70;73.80;;;;;;6959172;19;21025;-70
2023/09/19 13:08:32;;;;;;;3.28;0.95;;;29.00;74.80;;;;;;6930970;19;20951;-70
2023/09/19 13:11:12;;;;;;;2.55;1.10;;;29.30;72.10;;;;;;7035257;19;21603;-70
2023/09/19 13:14:08;;;;;;;2.08;0.90;;;29.60;72.50;;;;;;7002056;19;21376;-71
2023/09/19 13:16:55;;;;;;;1.73;1.13;;;29.90;71.00;;;;;;7035855;19;21101;-70
2023/09/19 13:19:40;;;;;;;4.57;1.00;;;29.80;68.70;;;;;;7050113;19;20014;-71
2023/09/19 13:22:38;;;;;;;3.50;1.15;;;29.80;66.70;;;;;;6984572;19;21128;-71
2023/09/19 13:25:15;;;;;;;2.25;1.00;;;30.30;66.40;;;;;;6985791;19;20493;-72
2023/09/19 13:27:54;;;;;;;1.58;1.00;;;30.00;65.60;;;;;;7071335;19;20451;-71
2023/09/19 13:30:31;;;;;;;1.88;1.10;;;30.10;65.00;;;;;;7002797;19;21510;-70
2023/09/19 13:33:06;;;;;;;1.60;1.02;;;29.70;65.30;;;;;;7040443;19;20363;-70
2023/09/19 13:35:40;;;;;;;1.50;1.08;;;30.40;66.70;;;;;;7025371;19;20021;-70
2023/09/19 13:38:14;;;;;;;1.70;1.30;;;30.20;64.10;;;;;;7014171;19;20178;-72
2023/09/19 13:40:48;;;;;;;1.50;1.10;;;30.10;64.70;;;;;;7088746;19;21002;-70
2023/09/19 13:43:24;;;;;;;2.22;1.27;;;29.50;65.10;;;;;;7038784;19;20835;-72
2023/09/19 13:45:57;;;;;;;1.60;1.17;;;30.20;64.10;;;;;;7029560;19;21020;-72